createdAt,value
2023-01-25T00:00:48.793Z,1.18
2023-01-25T00:03:16.662Z,1.25
2023-01-25T00:05:44.424Z,1.26
2023-01-25T00:08:12.217Z,1.13
2023-01-25T00:10:40.046Z,1.28
2023-01-25T00:13:07.845Z,1.16
2023-01-25T00:15:35.666Z,1.37
2023-01-25T00:18:05.095Z,1.21
2023-01-25T00:20:32.837Z,1.25
2023-01-25T00:23:00.588Z,1.21
2023-01-25T00:25:29.773Z,1.11
2023-01-25T00:27:57.526Z,0.98
2023-01-25T00:30:25.298Z,0.93
2023-01-25T00:32:59.007Z,1.02
2023-01-25T00:35:32.409Z,0.95
2023-01-25T00:38:03.235Z,1.03
2023-01-25T00:40:31.209Z,1.08
2023-01-25T00:43:00.760Z,0.94
2023-01-25T00:45:28.580Z,0.94
2023-01-25T00:47:56.977Z,0.89
2023-01-25T00:50:24.730Z,0.88
2023-01-25T00:52:53.760Z,1.00
2023-01-25T00:55:21.465Z,1.06
2023-01-25T00:57:49.202Z,1.09
2023-01-25T01:00:17.742Z,1.12
2023-01-25T01:02:45.422Z,1.02
2023-01-25T01:05:13.274Z,1.10
2023-01-25T01:07:41.191Z,1.11
2023-01-25T01:10:11.539Z,1.04
2023-01-25T01:12:39.267Z,1.00
2023-01-25T01:15:08.453Z,0.98
2023-01-25T01:17:36.665Z,1.02
2023-01-25T01:20:04.614Z,1.14
2023-01-25T01:22:32.428Z,1.15
2023-01-25T01:25:00.209Z,1.18
2023-01-25T01:27:29.343Z,1.20
2023-01-25T01:29:57.144Z,1.19
2023-01-25T01:32:24.966Z,1.27
2023-01-25T01:34:53.014Z,1.09
2023-01-25T01:37:20.705Z,1.05
2023-01-25T01:39:48.394Z,1.13
2023-01-25T01:42:16.059Z,1.12
2023-01-25T01:44:50.295Z,1.30
2023-01-25T01:47:23.652Z,1.16
2023-01-25T01:49:55.352Z,1.23
2023-01-25T01:52:30.502Z,1.07
2023-01-25T01:55:02.647Z,0.77
2023-01-25T01:57:35.995Z,0.95
2023-01-25T02:00:09.790Z,0.90
2023-01-25T02:06:35.279Z,0.82
2023-01-25T02:09:03.069Z,0.88
2023-01-25T02:11:33.576Z,0.87
2023-01-25T02:14:02.896Z,0.84
2023-01-25T02:16:32.270Z,0.85
2023-01-25T02:19:02.661Z,0.85
2023-01-25T02:21:40.330Z,0.72
2023-01-25T02:24:13.150Z,0.54
2023-01-25T02:26:42.278Z,0.68
2023-01-25T02:29:11.015Z,0.62
2023-01-25T02:31:39.014Z,0.62
2023-01-25T02:34:06.863Z,0.66
2023-01-25T02:36:36.093Z,0.64
2023-01-25T02:39:08.314Z,0.61
2023-01-25T02:41:38.328Z,0.72
2023-01-25T02:44:11.034Z,0.69
2023-01-25T02:46:40.633Z,0.79
2023-01-25T02:49:10.774Z,0.76
2023-01-25T02:51:42.048Z,0.69
2023-01-25T02:54:11.405Z,0.61
2023-01-25T02:56:40.683Z,0.56
2023-01-25T02:59:13.249Z,0.58
2023-01-25T03:01:42.998Z,0.64
2023-01-25T03:04:11.551Z,0.80
2023-01-25T03:06:39.830Z,0.81
2023-01-25T03:09:09.870Z,0.80
2023-01-25T03:11:37.948Z,0.76
2023-01-25T03:14:05.805Z,0.64
2023-01-25T03:16:35.075Z,0.62
2023-01-25T03:19:02.893Z,0.75
2023-01-25T03:21:30.798Z,0.75
2023-01-25T03:24:00.448Z,0.59
2023-01-25T03:26:29.292Z,0.61
2023-01-25T03:28:57.288Z,0.80
2023-01-25T03:31:25.737Z,0.77
2023-01-25T03:33:54.889Z,0.83
2023-01-25T03:36:22.654Z,0.89
2023-01-25T03:38:50.465Z,0.74
2023-01-25T03:41:18.186Z,0.73
2023-01-25T03:43:45.854Z,0.66
2023-01-25T03:46:13.628Z,0.67
2023-01-25T03:48:41.377Z,0.79
2023-01-25T03:51:10.735Z,0.87
2023-01-25T03:53:38.562Z,0.92
2023-01-25T03:56:09.494Z,0.91
2023-01-25T03:58:38.578Z,0.92
2023-01-25T04:01:08.713Z,0.83
2023-01-25T04:03:36.931Z,0.85
2023-01-25T04:06:05.365Z,0.88
2023-01-25T04:08:35.964Z,0.93
2023-01-25T04:11:05.692Z,0.83
2023-01-25T04:13:35.177Z,0.90
2023-01-25T04:16:02.982Z,0.54
2023-01-25T04:18:30.886Z,0.69
2023-01-25T04:20:59.356Z,0.62
2023-01-25T04:23:27.916Z,0.75
2023-01-25T04:25:58.280Z,0.72
2023-01-25T04:28:26.734Z,0.57
2023-01-25T04:30:54.553Z,0.57
2023-01-25T04:33:22.896Z,0.67
2023-01-25T04:35:50.909Z,0.67
2023-01-25T04:38:19.040Z,0.58
2023-01-25T04:40:47.028Z,0.57
2023-01-25T04:43:17.350Z,0.66
2023-01-25T04:45:45.359Z,0.44
2023-01-25T04:48:14.526Z,0.50
2023-01-25T04:50:43.569Z,0.50
2023-01-25T04:53:13.002Z,0.58
2023-01-25T04:55:40.763Z,0.64
2023-01-25T04:58:08.501Z,0.47
2023-01-25T05:00:37.590Z,0.53
2023-01-25T05:03:05.559Z,0.67
2023-01-25T05:05:33.247Z,0.66
2023-01-25T05:08:00.985Z,0.54
2023-01-25T05:10:28.992Z,0.31
2023-01-25T05:12:56.630Z,0.35
2023-01-25T05:15:24.353Z,0.51
2023-01-25T05:17:53.446Z,0.49
2023-01-25T05:20:21.203Z,0.59
2023-01-25T05:22:48.965Z,0.65
2023-01-25T05:25:30.827Z,0.36
2023-01-25T05:27:58.568Z,0.63
2023-01-25T05:30:26.323Z,0.37
2023-01-25T05:32:55.465Z,0.42
2023-01-25T05:35:23.221Z,0.41
2023-01-25T05:37:51.003Z,0.25
2023-01-25T05:40:19.024Z,0.30
2023-01-25T05:42:46.752Z,0.42
2023-01-25T05:45:14.442Z,0.44
2023-01-25T05:47:42.146Z,0.53
2023-01-25T05:50:12.236Z,0.47
2023-01-25T05:52:39.906Z,0.53
2023-01-25T05:55:08.561Z,0.62
2023-01-25T05:57:36.462Z,0.61
2023-01-25T06:00:05.371Z,0.55
2023-01-25T06:02:33.278Z,0.65
2023-01-25T06:05:01.081Z,0.71
2023-01-25T06:07:30.212Z,0.58
2023-01-25T06:09:58.064Z,0.45
2023-01-25T06:12:25.803Z,0.37
2023-01-25T06:14:53.795Z,0.46
2023-01-25T06:17:21.596Z,0.48
2023-01-25T06:19:49.315Z,0.60
2023-01-25T06:22:17.032Z,0.60
2023-01-25T06:24:46.137Z,0.65
2023-01-25T06:27:13.839Z,0.59
2023-01-25T06:29:41.569Z,0.60
2023-01-25T06:32:09.323Z,0.62
2023-01-25T06:34:37.167Z,0.59
2023-01-25T06:37:04.977Z,0.56
2023-01-25T06:39:32.765Z,0.48
2023-01-25T06:42:02.018Z,0.44
2023-01-25T06:44:29.999Z,0.33
2023-01-25T06:46:58.736Z,0.39
2023-01-25T06:49:26.480Z,0.38
2023-01-25T06:51:54.229Z,0.45
2023-01-25T06:54:21.979Z,0.11
2023-01-25T06:56:49.843Z,0.29
2023-01-25T06:59:19.078Z,0.42
2023-01-25T07:01:46.929Z,0.29
2023-01-25T07:04:14.691Z,0.52
2023-01-25T07:06:42.446Z,0.20
2023-01-25T07:09:13.717Z,0.32
2023-01-25T07:11:41.956Z,0.27
2023-01-25T07:14:09.831Z,0.37
2023-01-25T07:16:39.124Z,0.46
2023-01-25T07:19:08.122Z,0.56
2023-01-25T07:21:36.042Z,0.65
2023-01-25T07:24:05.812Z,0.64
2023-01-25T07:26:33.917Z,0.63
2023-01-25T07:29:01.866Z,0.57
2023-01-25T07:31:29.674Z,0.64
2023-01-25T07:33:59.486Z,0.41
2023-01-25T07:36:27.464Z,0.49
2023-01-25T07:38:56.212Z,0.55
2023-01-25T07:41:24.732Z,0.66
2023-01-25T07:43:52.560Z,0.67
2023-01-25T07:46:21.170Z,0.59
2023-01-25T07:48:50.635Z,0.70
2023-01-25T07:51:25.032Z,0.59
2023-01-25T07:53:54.336Z,0.51
2023-01-25T07:56:23.501Z,0.53
2023-01-25T07:58:53.022Z,0.34
2023-01-25T08:01:22.709Z,0.35
2023-01-25T08:03:51.297Z,0.52
2023-01-25T08:06:27.571Z,0.44
2023-01-25T08:08:55.494Z,0.30
2023-01-25T08:11:25.146Z,0.53
2023-01-25T08:13:53.135Z,0.51
2023-01-25T08:16:22.526Z,0.44
2023-01-25T08:18:51.543Z,0.22
2023-01-25T08:21:20.646Z,0.34
2023-01-25T08:23:48.564Z,0.27
2023-01-25T08:26:16.827Z,0.32
2023-01-25T08:28:44.617Z,0.31
2023-01-25T08:31:14.688Z,0.11
2023-01-25T08:33:44.451Z,0.18
2023-01-25T08:36:12.142Z,0.25
2023-01-25T08:38:41.404Z,0.33
2023-01-25T08:41:10.507Z,0.22
2023-01-25T08:43:39.030Z,0.37
2023-01-25T08:46:07.332Z,0.40
2023-01-25T08:48:35.316Z,0.48
2023-01-25T08:51:03.481Z,0.40
2023-01-25T08:53:32.812Z,0.35
2023-01-25T08:56:05.975Z,0.35
2023-01-25T08:58:34.524Z,0.27
2023-01-25T09:01:04.537Z,0.00
2023-01-25T09:03:32.752Z,0.06
2023-01-25T09:06:00.607Z,0.08
2023-01-25T09:08:28.367Z,0.18
2023-01-25T09:10:56.111Z,0.22
2023-01-25T09:13:25.187Z,0.20
2023-01-25T09:15:52.848Z,0.24
2023-01-25T09:18:20.679Z,0.30
2023-01-25T09:20:48.479Z,0.33
2023-01-25T09:23:16.227Z,0.34
2023-01-25T09:25:43.903Z,0.39
2023-01-25T09:28:12.090Z,0.17
2023-01-25T09:30:48.430Z,0.32
2023-01-25T09:33:19.331Z,0.38
2023-01-25T09:35:49.870Z,0.44
2023-01-25T09:38:17.700Z,0.30
2023-01-25T09:40:57.287Z,0.38
2023-01-25T09:43:36.201Z,0.46
2023-01-25T09:46:15.813Z,0.39
2023-01-25T09:48:53.894Z,0.53
2023-01-25T09:51:30.063Z,0.36
2023-01-25T09:53:58.651Z,0.57
2023-01-25T09:56:29.477Z,0.61
2023-01-25T09:59:00.299Z,0.76
2023-01-25T10:01:40.841Z,0.68
2023-01-25T10:04:16.110Z,0.70
2023-01-25T10:06:55.074Z,0.53
2023-01-25T10:09:38.541Z,0.75
2023-01-25T10:12:15.404Z,0.58
2023-01-25T10:14:43.242Z,0.52
2023-01-25T10:17:21.473Z,0.55
2023-01-25T10:20:04.317Z,0.17
2023-01-25T10:22:39.817Z,0.42
2023-01-25T10:25:33.328Z,0.43
2023-01-25T10:28:14.663Z,0.49
2023-01-25T10:30:54.175Z,0.59
2023-01-25T10:33:23.459Z,0.81
2023-01-25T10:35:51.705Z,0.78
2023-01-25T10:38:26.066Z,0.63
2023-01-25T10:40:57.575Z,0.73
2023-01-25T10:43:25.263Z,0.83
2023-01-25T10:45:53.016Z,0.74
2023-01-25T10:48:25.235Z,0.67
2023-01-25T10:50:54.381Z,0.72
2023-01-25T10:53:31.280Z,0.77
2023-01-25T10:56:03.148Z,0.80
2023-01-25T10:58:35.840Z,0.77
2023-01-25T11:01:06.950Z,0.87
2023-01-25T11:03:38.587Z,0.92
2023-01-25T11:06:07.510Z,0.77
2023-01-25T11:08:37.330Z,0.89
2023-01-25T11:11:25.440Z,0.94
2023-01-25T11:13:55.501Z,0.78
2023-01-25T11:16:33.008Z,0.77
2023-01-25T11:19:03.925Z,0.65
2023-01-25T11:21:32.996Z,0.64
2023-01-25T11:24:17.829Z,0.66
2023-01-25T11:26:46.701Z,0.56
2023-01-25T11:29:17.712Z,0.67
2023-01-25T11:31:48.354Z,0.54
2023-01-25T11:34:19.607Z,0.64
2023-01-25T11:37:07.577Z,0.74
2023-01-25T11:39:47.972Z,0.69
2023-01-25T11:42:28.190Z,0.85
2023-01-25T11:45:37.311Z,0.57
2023-01-25T11:48:21.224Z,0.65
2023-01-25T11:51:05.349Z,0.60
2023-01-25T11:53:47.879Z,0.38
2023-01-25T11:56:28.204Z,0.53
2023-01-25T11:59:24.552Z,0.70
2023-01-25T12:02:08.541Z,0.46
2023-01-25T12:04:56.513Z,0.47
2023-01-25T12:07:37.990Z,0.48
2023-01-25T12:10:19.082Z,0.37
2023-01-25T12:12:52.411Z,0.49
2023-01-25T12:15:45.158Z,0.63
2023-01-25T12:18:29.535Z,0.69
2023-01-25T12:21:08.573Z,0.65
2023-01-25T12:23:53.136Z,0.72
2023-01-25T12:26:28.100Z,0.67
2023-01-25T12:29:04.927Z,0.65
2023-01-25T12:31:43.675Z,0.74
2023-01-25T12:34:17.446Z,0.74
2023-01-25T12:36:46.999Z,0.40
2023-01-25T12:39:24.525Z,0.46
2023-01-25T12:41:57.170Z,0.66
2023-01-25T12:44:28.320Z,0.80
2023-01-25T12:47:03.562Z,0.78
2023-01-25T12:49:37.470Z,0.91
2023-01-25T12:52:08.317Z,0.63
2023-01-25T12:54:41.950Z,0.68
2023-01-25T12:57:20.449Z,0.90
2023-01-25T12:59:56.492Z,0.45
2023-01-25T13:02:38.701Z,0.69
2023-01-25T13:05:23.574Z,0.53
2023-01-25T13:07:59.000Z,0.57
2023-01-25T13:10:34.559Z,0.56
2023-01-25T13:13:04.669Z,0.45
2023-01-25T13:15:37.133Z,0.16
2023-01-25T13:18:36.865Z,0.38
2023-01-25T13:21:06.542Z,0.31
2023-01-25T13:23:35.668Z,0.46
2023-01-25T13:26:48.424Z,0.25
2023-01-25T13:29:52.814Z,0.46
2023-01-25T13:32:56.551Z,0.56
2023-01-25T13:35:45.497Z,0.58
2023-01-25T13:38:37.331Z,0.60
2023-01-25T13:41:15.362Z,0.64
2023-01-25T13:43:47.096Z,0.63
2023-01-25T13:46:18.808Z,0.53
2023-01-25T13:48:58.940Z,0.61
2023-01-25T13:51:30.775Z,0.63
2023-01-25T13:54:00.792Z,0.41
2023-01-25T13:56:32.016Z,0.39
2023-01-25T13:59:01.293Z,0.40
2023-01-25T14:01:31.742Z,0.40
2023-01-25T14:04:01.844Z,0.50
2023-01-25T14:06:31.883Z,0.49
2023-01-25T14:09:03.010Z,0.28
2023-01-25T14:11:34.488Z,0.38
2023-01-25T14:14:15.510Z,0.53
2023-01-25T14:16:43.225Z,0.61
2023-01-25T14:19:24.446Z,0.58
2023-01-25T14:22:11.658Z,0.47
2023-01-25T14:24:40.059Z,0.42
2023-01-25T14:27:08.019Z,0.55
2023-01-25T14:32:20.580Z,0.38
2023-01-25T14:34:48.266Z,0.36
2023-01-25T14:37:18.837Z,0.48
2023-01-25T14:39:47.307Z,0.42
2023-01-25T14:42:15.519Z,0.46
2023-01-25T14:44:45.202Z,0.63
2023-01-25T14:47:32.633Z,0.61
2023-01-25T14:50:33.881Z,0.28
2023-01-25T14:53:09.778Z,0.48
2023-01-25T14:55:38.454Z,0.55
2023-01-25T14:58:08.541Z,0.53
2023-01-25T15:00:38.685Z,0.30
2023-01-25T15:03:07.517Z,0.43
2023-01-25T15:05:37.733Z,0.34
2023-01-25T15:08:16.900Z,0.40
2023-01-25T15:10:55.479Z,0.16
2023-01-25T15:13:24.975Z,0.28
2023-01-25T15:15:57.969Z,0.18
2023-01-25T15:18:45.182Z,0.11
2023-01-25T15:21:14.789Z,0.17
2023-01-25T15:23:43.615Z,0.32
2023-01-25T15:26:18.994Z,0.41
2023-01-25T15:28:47.869Z,0.38
2023-01-25T15:31:24.630Z,0.41
2023-01-25T15:33:52.482Z,0.52
2023-01-25T15:36:20.452Z,0.52
2023-01-25T15:38:48.305Z,0.59
2023-01-25T15:41:18.409Z,0.58
2023-01-25T15:43:46.356Z,0.41
2023-01-25T15:46:19.428Z,0.31
2023-01-25T15:48:50.341Z,0.14
2023-01-25T15:51:20.897Z,0.07
2023-01-25T15:53:49.046Z,-0.10
2023-01-25T15:56:19.910Z,0.05
2023-01-25T15:58:51.412Z,0.04
2023-01-25T16:01:19.923Z,0.13
2023-01-25T16:03:48.996Z,0.20
2023-01-25T16:06:32.776Z,-0.05
2023-01-25T16:09:01.303Z,0.14
2023-01-25T16:11:29.144Z,0.22
2023-01-25T16:13:57.828Z,0.07
2023-01-25T16:16:26.513Z,0.22
2023-01-25T16:18:55.745Z,0.32
2023-01-25T16:21:23.341Z,0.37
2023-01-25T16:23:51.081Z,0.31
2023-01-25T16:26:21.124Z,0.18
2023-01-25T16:28:48.971Z,0.16
2023-01-25T16:31:31.432Z,0.12
2023-01-25T16:34:01.976Z,0.16
2023-01-25T16:36:30.246Z,0.00
2023-01-25T16:39:06.523Z,0.17
2023-01-25T16:41:34.485Z,0.06
2023-01-25T16:44:02.188Z,0.22
2023-01-25T16:46:29.835Z,0.13
2023-01-25T16:48:58.845Z,0.30
2023-01-25T16:51:29.296Z,0.22
2023-01-25T16:53:59.034Z,0.25
2023-01-25T16:56:28.466Z,0.26
2023-01-25T16:58:58.436Z,0.26
2023-01-25T17:01:27.549Z,0.28
2023-01-25T17:03:56.215Z,0.33
2023-01-25T17:06:26.220Z,0.35
2023-01-25T17:08:57.925Z,0.28
2023-01-25T17:11:26.137Z,0.38
2023-01-25T17:13:55.353Z,0.32
2023-01-25T17:16:25.070Z,0.10
2023-01-25T17:18:55.856Z,0.16
2023-01-25T17:21:24.406Z,0.13
2023-01-25T17:23:52.879Z,0.23
2023-01-25T17:26:23.770Z,0.27
2023-01-25T17:28:51.909Z,0.28
2023-01-25T17:31:22.154Z,0.03
2023-01-25T17:33:51.000Z,-0.03
2023-01-25T17:36:19.025Z,-0.02
2023-01-25T17:38:47.249Z,-0.12
2023-01-25T17:41:16.674Z,0.00
2023-01-25T17:43:45.724Z,0.07
2023-01-25T17:46:14.519Z,-0.03
2023-01-25T17:48:42.528Z,0.12
2023-01-25T17:51:10.290Z,-0.02
2023-01-25T17:53:38.033Z,-0.05
2023-01-25T17:56:07.225Z,-0.14
2023-01-25T17:58:37.311Z,0.02
2023-01-25T18:01:14.211Z,-0.08
2023-01-25T18:03:44.504Z,-0.06
2023-01-25T18:06:13.930Z,-0.06
2023-01-25T18:08:43.352Z,0.19
2023-01-25T18:11:15.267Z,0.12
2023-01-25T18:13:43.839Z,0.13
2023-01-25T18:16:14.271Z,0.20
2023-01-25T18:18:43.781Z,0.30
2023-01-25T18:21:13.319Z,0.27
2023-01-25T18:23:42.351Z,0.22
2023-01-25T18:26:18.140Z,0.08
2023-01-25T18:28:46.225Z,0.13
2023-01-25T18:31:17.495Z,0.07
2023-01-25T18:33:45.670Z,0.13
2023-01-25T18:36:15.668Z,0.25
2023-01-25T18:38:43.392Z,0.30
2023-01-25T18:41:11.322Z,0.30
2023-01-25T18:43:39.416Z,0.35
2023-01-25T18:46:07.494Z,0.21
2023-01-25T18:48:36.618Z,0.18
2023-01-25T18:51:07.938Z,0.22
2023-01-25T18:53:37.327Z,0.28
2023-01-25T18:56:07.343Z,-0.08
2023-01-25T18:58:36.784Z,-0.05
2023-01-25T19:01:07.805Z,0.07
2023-01-25T19:03:37.439Z,0.09
2023-01-25T19:06:05.689Z,0.18
2023-01-25T19:08:35.620Z,0.23
2023-01-25T19:11:05.967Z,0.22
2023-01-25T19:13:34.523Z,0.22
2023-01-25T19:16:03.802Z,0.08
2023-01-25T19:18:32.929Z,0.05
2023-01-25T19:21:02.315Z,0.13
2023-01-25T19:23:34.645Z,0.20
2023-01-25T19:26:02.454Z,0.22
2023-01-25T19:28:31.469Z,0.23
2023-01-25T19:31:07.392Z,0.22
2023-01-25T19:33:35.163Z,0.21
2023-01-25T19:36:06.617Z,0.07
2023-01-25T19:38:38.108Z,0.18
2023-01-25T19:41:07.117Z,0.12
2023-01-25T19:43:34.787Z,0.24
2023-01-25T19:46:10.065Z,0.22
2023-01-25T19:48:38.651Z,0.19
2023-01-25T19:51:15.349Z,0.11
2023-01-25T19:53:46.549Z,0.16
2023-01-25T19:56:16.409Z,0.14
2023-01-25T19:58:45.347Z,0.10
2023-01-25T20:01:14.897Z,0.13
2023-01-25T20:03:42.680Z,0.21
2023-01-25T20:06:12.490Z,0.17
2023-01-25T20:08:43.560Z,0.02
2023-01-25T20:11:13.722Z,-0.01
2023-01-25T20:13:43.032Z,0.05
2023-01-25T20:16:12.757Z,0.04
2023-01-25T20:18:40.903Z,0.04
2023-01-25T20:21:12.174Z,0.12
2023-01-25T20:23:43.681Z,0.13
2023-01-25T20:26:14.344Z,0.17
2023-01-25T20:28:43.443Z,0.17
2023-01-25T20:31:20.850Z,0.05
2023-01-25T20:33:49.755Z,0.15
2023-01-25T20:36:17.734Z,0.16
2023-01-25T20:38:46.933Z,-0.16
2023-01-25T20:41:17.009Z,0.06
2023-01-25T20:43:48.426Z,-0.05
2023-01-25T20:46:17.316Z,-0.04
2023-01-25T20:48:45.716Z,-0.13
2023-01-25T20:51:16.879Z,-0.24
2023-01-25T20:53:47.057Z,-0.14
2023-01-25T20:56:15.875Z,-0.10
2023-01-25T20:58:45.855Z,-0.02
2023-01-25T21:01:15.216Z,-0.06
2023-01-25T21:03:43.053Z,0.05
2023-01-25T21:06:11.015Z,0.03
2023-01-25T21:08:39.129Z,-0.05
2023-01-25T21:11:08.920Z,-0.07
2023-01-25T21:13:36.868Z,-0.05
2023-01-25T21:16:07.303Z,-0.07
2023-01-25T21:18:36.916Z,0.02
2023-01-25T21:21:07.157Z,-0.09
2023-01-25T21:23:35.684Z,-0.07
2023-01-25T21:26:05.598Z,-0.12
2023-01-25T21:28:36.997Z,-0.04
2023-01-25T21:31:09.554Z,0.00
2023-01-25T21:33:38.594Z,-0.11
2023-01-25T21:36:08.573Z,-0.21
2023-01-25T21:38:36.556Z,-0.14
2023-01-25T21:41:05.708Z,-0.22
2023-01-25T21:43:55.367Z,-0.22
2023-01-25T21:46:25.558Z,-0.21
2023-01-25T21:49:12.102Z,-0.18
2023-01-25T21:51:46.961Z,-0.12
2023-01-25T21:54:15.920Z,-0.21
2023-01-25T21:56:43.721Z,-0.09
2023-01-25T21:59:13.384Z,-0.01
2023-01-25T22:01:42.950Z,0.07
2023-01-25T22:04:11.649Z,0.20
2023-01-25T22:06:39.728Z,0.29
2023-01-25T22:09:08.968Z,0.41
2023-01-25T22:11:37.415Z,0.43
2023-01-25T22:14:05.406Z,0.44
2023-01-25T22:16:38.894Z,0.43
2023-01-25T22:19:07.240Z,0.40
2023-01-25T22:21:34.987Z,0.42
2023-01-25T22:24:04.285Z,0.42
2023-01-25T22:26:40.438Z,0.30
2023-01-25T22:29:09.594Z,-0.09
2023-01-25T22:31:38.937Z,0.05
2023-01-25T22:34:06.808Z,0.06
2023-01-25T22:36:36.165Z,-0.01
2023-01-25T22:39:04.005Z,-0.20
2023-01-25T22:41:33.735Z,-0.08
2023-01-25T22:44:01.453Z,-0.19
2023-01-25T22:46:31.448Z,-0.38
2023-01-25T22:49:02.531Z,-0.24
2023-01-25T22:51:31.919Z,-0.22
2023-01-25T22:54:00.513Z,-0.16
2023-01-25T22:56:29.459Z,-0.40
2023-01-25T22:59:01.104Z,-0.20
2023-01-25T23:01:31.073Z,-0.19
2023-01-25T23:04:00.661Z,-0.12
2023-01-25T23:06:30.108Z,-0.38
2023-01-25T23:08:59.738Z,-0.30
2023-01-25T23:11:32.169Z,-0.07
2023-01-25T23:14:18.260Z,0.05
2023-01-25T23:16:45.988Z,0.19
2023-01-25T23:19:14.553Z,0.36
2023-01-25T23:21:42.651Z,0.30
2023-01-25T23:24:12.037Z,0.18
2023-01-25T23:26:46.084Z,0.20
2023-01-25T23:29:14.346Z,0.19
2023-01-25T23:31:42.322Z,0.24
2023-01-25T23:34:12.580Z,0.12
2023-01-25T23:36:42.327Z,0.20
2023-01-25T23:39:12.708Z,0.28
2023-01-25T23:41:41.092Z,0.24
2023-01-25T23:44:09.113Z,0.33
2023-01-25T23:46:36.917Z,0.32
2023-01-25T23:49:04.642Z,0.30
2023-01-25T23:51:32.328Z,0.26
2023-01-25T23:54:01.384Z,0.33
2023-01-25T23:56:29.038Z,0.28
2023-01-25T23:58:56.676Z,0.46
